Time;durP1;ratioP1;P1;durP2;ratioP2;P2;SDS_P1;SDS_P2;PMS_P1;PMS_P2;Temp;Humidity;BMP_temperature;BMP_pressure;BME280_temperature;BME280_humidity;BME280_pressure;Samples;Min_cycle;Max_cycle;Signal;HPM_P1;HPM_P2
2022/07/29 00:00:44;;;;;;;1999.90;999.90;;;14.70;99.90;;;;;;5134213;27;20036;-76
2022/07/29 00:03:10;;;;;;;1999.90;999.90;;;14.70;99.90;;;;;;5138829;27;20054;-76
2022/07/29 00:05:36;;;;;;;1999.90;999.90;;;14.70;99.90;;;;;;5141042;27;20064;-76
2022/07/29 00:08:01;;;;;;;1999.90;999.90;;;14.70;99.90;;;;;;5117151;27;20035;-76
2022/07/29 00:10:27;;;;;;;1999.90;999.90;;;14.70;99.90;;;;;;5109438;28;20454;-76
2022/07/29 00:12:53;;;;;;;1999.90;999.90;;;14.70;99.90;;;;;;5128786;28;20052;-76
2022/07/29 00:15:18;;;;;;;1999.90;999.90;;;14.70;99.90;;;;;;5113755;27;20557;-76
2022/07/29 00:17:44;;;;;;;1999.90;999.90;;;14.70;99.90;;;;;;5125946;28;20080;-76
2022/07/29 00:20:10;;;;;;;1999.90;999.90;;;14.70;99.90;;;;;;5110799;28;20035;-76
2022/07/29 00:22:39;;;;;;;1999.90;999.90;;;14.70;99.90;;;;;;5125986;28;20047;-76
2022/07/29 00:25:05;;;;;;;1999.90;999.90;;;14.70;99.90;;;;;;5127318;28;20039;-76
2022/07/29 00:27:31;;;;;;;1999.90;999.90;;;14.70;99.90;;;;;;5127022;28;20054;-76
2022/07/29 00:29:57;;;;;;;1999.90;999.90;;;14.80;99.90;;;;;;5126510;28;20395;-75
2022/07/29 00:32:22;;;;;;;1999.90;999.90;;;14.70;99.90;;;;;;5128484;28;20039;-76
2022/07/29 00:37:32;;;;;;;1999.90;999.90;;;14.80;99.90;;;;;;5109989;28;20043;-75
2022/07/29 00:39:57;;;;;;;1999.90;999.90;;;14.80;99.90;;;;;;5122625;28;20127;-75
2022/07/29 00:42:23;;;;;;;1999.90;999.90;;;14.70;99.90;;;;;;5127358;28;20044;-76
2022/07/29 00:44:49;;;;;;;1999.90;999.90;;;14.80;99.90;;;;;;5122742;28;20571;-75
2022/07/29 00:47:14;;;;;;;1999.90;999.90;;;14.80;99.90;;;;;;5099204;28;20568;-75
2022/07/29 00:49:41;;;;;;;1999.90;999.90;;;14.80;99.90;;;;;;5127337;28;20126;-76
2022/07/29 00:52:08;;;;;;;1999.90;999.90;;;14.70;99.90;;;;;;5110582;28;20428;-76
2022/07/29 00:54:34;;;;;;;1999.90;999.90;;;14.70;99.90;;;;;;5120568;28;20039;-75
2022/07/29 00:57:00;;;;;;;1999.90;999.90;;;14.80;99.90;;;;;;5128131;27;20557;-76
2022/07/29 00:59:27;;;;;;;1999.90;999.90;;;14.80;99.90;;;;;;5130351;27;20046;-76
2022/07/29 01:01:53;;;;;;;1999.90;999.90;;;14.80;99.90;;;;;;5116814;27;20718;-76
2022/07/29 01:04:20;;;;;;;1999.90;999.90;;;14.70;99.90;;;;;;5131982;27;20066;-75
2022/07/29 01:06:48;;;;;;;1999.90;999.90;;;14.70;99.90;;;;;;5128411;27;20031;-76
2022/07/29 01:09:15;;;;;;;1999.90;999.90;;;14.70;99.90;;;;;;5122710;27;20046;-76
2022/07/29 01:11:41;;;;;;;1999.90;999.90;;;14.70;99.90;;;;;;5118503;27;20078;-76
2022/07/29 01:14:08;;;;;;;1999.90;999.90;;;14.70;99.90;;;;;;5115631;27;20063;-76
2022/07/29 01:16:56;;;;;;;1999.90;999.90;;;14.70;99.90;;;;;;5089409;28;20492;-75
2022/07/29 01:19:36;;;;;;;1999.90;999.90;;;14.70;99.90;;;;;;5130698;27;20342;-75
2022/07/29 01:22:24;;;;;;;1999.90;999.90;;;14.70;99.90;;;;;;5130528;27;20106;-75
2022/07/29 01:25:18;;;;;;;1999.90;999.90;;;14.70;99.90;;;;;;5117165;27;20039;-75
2022/07/29 01:27:49;;;;;;;1999.90;999.90;;;14.60;99.90;;;;;;5124466;27;20402;-75
2022/07/29 01:30:15;;;;;;;1999.90;999.90;;;14.60;99.90;;;;;;5129517;27;20391;-75
2022/07/29 01:32:47;;;;;;;1999.90;999.90;;;14.60;99.90;;;;;;5132342;27;20054;-75
2022/07/29 01:35:20;;;;;;;1999.90;999.90;;;14.50;99.90;;;;;;5128029;27;20041;-75
2022/07/29 01:37:48;;;;;;;1999.90;999.90;;;14.50;99.90;;;;;;5116409;27;20088;-75
2022/07/29 01:40:24;;;;;;;1999.90;999.90;;;14.50;99.90;;;;;;5126040;27;20051;-76
2022/07/29 01:42:54;;;;;;;1999.90;999.90;;;14.50;99.90;;;;;;5104366;27;20090;-75
2022/07/29 01:45:25;;;;;;;1999.90;999.90;;;14.40;99.90;;;;;;5128518;27;20483;-75
2022/07/29 01:48:03;;;;;;;1999.90;999.90;;;14.40;99.90;;;;;;5087942;27;20087;-75
2022/07/29 01:50:37;;;;;;;1999.90;999.90;;;14.40;99.90;;;;;;5110743;27;20032;-75
2022/07/29 01:53:06;;;;;;;1999.90;999.90;;;14.40;99.90;;;;;;5100679;28;20512;-76
2022/07/29 01:55:38;;;;;;;1999.90;999.90;;;14.40;99.90;;;;;;5123251;27;20039;-76
2022/07/29 01:58:05;;;;;;;1999.90;999.90;;;14.30;99.90;;;;;;5121561;27;20394;-75
2022/07/29 02:00:33;;;;;;;1999.90;999.90;;;14.30;99.90;;;;;;5129073;27;20047;-76
2022/07/29 02:03:03;;;;;;;1999.90;999.90;;;14.30;99.90;;;;;;5111271;27;20043;-76
2022/07/29 02:05:30;;;;;;;1999.90;999.90;;;14.30;99.90;;;;;;5131172;27;20078;-76
2022/07/29 02:07:58;;;;;;;1999.90;999.90;;;14.20;99.90;;;;;;5121848;27;20031;-76
2022/07/29 02:10:29;;;;;;;1999.90;999.90;;;14.20;99.90;;;;;;5091877;27;20075;-76
2022/07/29 02:12:57;;;;;;;1999.90;999.90;;;14.30;99.90;;;;;;5127542;27;20487;-76
2022/07/29 02:15:24;;;;;;;1999.90;999.90;;;14.30;99.90;;;;;;5122607;27;20031;-75
2022/07/29 02:18:17;;;;;;;1999.90;999.90;;;14.20;99.90;;;;;;5129166;27;20035;-76
2022/07/29 02:20:50;;;;;;;1999.90;999.90;;;14.30;99.90;;;;;;5104051;27;20065;-76
2022/07/29 02:23:19;;;;;;;1999.90;999.90;;;14.20;99.90;;;;;;5128843;27;20039;-76
2022/07/29 02:25:49;;;;;;;1999.90;999.90;;;14.20;99.90;;;;;;5129708;27;20042;-76
2022/07/29 02:28:16;;;;;;;1999.90;999.90;;;14.20;99.90;;;;;;5119337;27;20035;-76
2022/07/29 02:30:42;;;;;;;1999.90;999.90;;;14.20;99.90;;;;;;5126109;27;20047;-76
2022/07/29 02:33:10;;;;;;;1999.90;999.90;;;14.20;99.90;;;;;;5127750;27;20416;-76
2022/07/29 02:35:36;;;;;;;1999.90;999.90;;;14.30;99.90;;;;;;5129665;27;20058;-76
2022/07/29 02:40:50;;;;;;;1999.90;999.90;;;14.40;99.90;;;;;;5119149;27;20492;-76
2022/07/29 02:43:18;;;;;;;1999.90;999.90;;;14.40;99.90;;;;;;5105922;27;20038;-76
2022/07/29 02:45:47;;;;;;;1999.90;999.90;;;14.40;99.90;;;;;;5121887;27;20039;-75
2022/07/29 02:48:16;;;;;;;1999.90;999.90;;;14.40;99.90;;;;;;5127096;27;20036;-76
2022/07/29 02:50:51;;;;;;;1999.90;999.90;;;14.50;99.90;;;;;;5093625;27;20075;-75
2022/07/29 02:53:24;;;;;;;1999.90;999.90;;;14.50;99.90;;;;;;5127771;27;20096;-75
2022/07/29 02:56:04;;;;;;;1999.90;999.90;;;14.60;99.90;;;;;;5126240;27;20043;-76
2022/07/29 02:58:44;;;;;;;1999.90;999.90;;;14.60;99.90;;;;;;5110727;27;20043;-75
2022/07/29 03:01:19;;;;;;;1999.90;999.90;;;14.70;99.90;;;;;;5104866;28;20055;-76
2022/07/29 03:03:47;;;;;;;1999.90;999.90;;;14.70;99.90;;;;;;5127337;27;20037;-76
2022/07/29 03:06:15;;;;;;;1999.90;999.90;;;14.70;99.90;;;;;;5111749;27;20105;-76
2022/07/29 03:08:42;;;;;;;1999.90;999.90;;;14.70;99.90;;;;;;5128145;27;20043;-76
2022/07/29 03:11:08;;;;;;;1999.90;999.90;;;14.70;99.90;;;;;;5125945;27;20522;-76
2022/07/29 03:13:35;;;;;;;1999.90;999.90;;;14.70;99.90;;;;;;5120051;27;20114;-76
2022/07/29 03:16:02;;;;;;;1999.90;999.90;;;14.70;99.90;;;;;;5119420;27;20046;-76
2022/07/29 03:18:28;;;;;;;1999.90;999.90;;;14.70;99.90;;;;;;5128941;27;20039;-76
2022/07/29 03:20:54;;;;;;;1999.90;999.90;;;14.70;99.90;;;;;;5113939;27;20495;-76
2022/07/29 03:23:23;;;;;;;1999.90;999.90;;;14.70;99.90;;;;;;5126346;27;20118;-76
2022/07/29 03:25:52;;;;;;;1999.90;999.90;;;14.70;99.90;;;;;;5111282;27;20043;-76
2022/07/29 03:28:18;;;;;;;1999.90;999.90;;;14.70;99.90;;;;;;5119520;27;20043;-76
2022/07/29 03:30:44;;;;;;;1999.90;999.90;;;14.70;99.90;;;;;;5120549;27;20046;-76
2022/07/29 03:33:09;;;;;;;1999.90;999.90;;;14.60;99.90;;;;;;5124796;27;20125;-76
2022/07/29 03:35:35;;;;;;;1999.90;999.90;;;14.60;99.90;;;;;;5118117;27;20482;-76
2022/07/29 03:38:01;;;;;;;1999.90;999.90;;;14.60;99.90;;;;;;5134849;27;20483;-76
2022/07/29 03:40:37;;;;;;;1999.90;999.90;;;14.60;99.90;;;;;;5127659;27;20035;-76
2022/07/29 03:43:05;;;;;;;1999.90;999.90;;;14.50;99.90;;;;;;5121341;27;20415;-76
2022/07/29 03:45:33;;;;;;;1999.90;999.90;;;14.50;99.90;;;;;;5124805;27;20046;-75
2022/07/29 03:48:08;;;;;;;1999.90;999.90;;;14.50;99.90;;;;;;5109160;27;20049;-76
2022/07/29 03:50:34;;;;;;;1999.90;999.90;;;14.50;99.90;;;;;;5126209;27;20671;-76
2022/07/29 03:53:01;;;;;;;1999.90;999.90;;;14.50;99.90;;;;;;5128086;27;20039;-75
2022/07/29 03:55:32;;;;;;;1999.90;999.90;;;14.60;99.90;;;;;;5112768;27;20046;-76
2022/07/29 03:58:00;;;;;;;1999.90;999.90;;;14.50;99.90;;;;;;5125941;27;20047;-75
2022/07/29 04:00:26;;;;;;;1999.90;999.90;;;14.60;99.90;;;;;;5122215;27;20061;-76
2022/07/29 04:02:52;;;;;;;1999.90;999.90;;;14.60;99.90;;;;;;5128784;27;20061;-76
2022/07/29 04:05:18;;;;;;;1999.90;999.90;;;14.70;99.90;;;;;;5118268;27;20039;-77
2022/07/29 04:07:45;;;;;;;1999.90;999.90;;;14.60;99.90;;;;;;5127608;27;20380;-76
2022/07/29 04:10:10;;;;;;;1999.90;999.90;;;14.70;99.90;;;;;;5109208;28;20046;-76
2022/07/29 04:12:36;;;;;;;1999.90;999.90;;;14.60;99.90;;;;;;5114732;27;20039;-76
2022/07/29 04:15:05;;;;;;;1999.90;999.90;;;14.60;99.90;;;;;;5123111;27;20054;-76
2022/07/29 04:17:31;;;;;;;1999.90;999.90;;;14.60;99.90;;;;;;5128491;27;20035;-76
2022/07/29 04:19:56;;;;;;;1999.90;999.90;;;14.60;99.90;;;;;;5123092;27;20361;-76
2022/07/29 04:22:22;;;;;;;1999.90;999.90;;;14.60;99.90;;;;;;5126979;27;20118;-76
2022/07/29 04:24:47;;;;;;;1999.90;999.90;;;14.60;99.90;;;;;;5121070;27;20036;-76
2022/07/29 04:27:13;;;;;;;1999.90;999.90;;;14.60;99.90;;;;;;5125975;27;20461;-76
2022/07/29 04:29:39;;;;;;;1999.90;999.90;;;14.60;99.90;;;;;;5124551;27;20559;-75
2022/07/29 04:32:05;;;;;;;1999.90;999.90;;;14.60;99.90;;;;;;5122903;27;20528;-76
2022/07/29 04:34:31;;;;;;;1999.90;999.90;;;14.60;99.90;;;;;;5095741;27;20043;-76
2022/07/29 04:36:56;;;;;;;1999.90;999.90;;;14.60;99.90;;;;;;5112218;27;20046;-76
2022/07/29 04:39:22;;;;;;;1999.90;999.90;;;14.60;99.90;;;;;;5122151;27;20474;-76
2022/07/29 04:41:49;;;;;;;1999.90;999.90;;;14.60;99.90;;;;;;5132811;27;20487;-76
2022/07/29 04:44:14;;;;;;;1999.90;999.90;;;14.70;99.90;;;;;;5132124;27;20050;-75
2022/07/29 04:46:40;;;;;;;1999.90;999.90;;;14.70;99.90;;;;;;5112735;27;20047;-75
2022/07/29 04:49:05;;;;;;;1999.90;999.90;;;14.70;99.90;;;;;;5113439;27;20067;-75
2022/07/29 04:51:31;;;;;;;1999.90;999.90;;;14.70;99.90;;;;;;5129543;27;20039;-75
2022/07/29 04:53:57;;;;;;;1999.90;999.90;;;14.70;99.90;;;;;;5120176;27;20082;-75
2022/07/29 04:56:22;;;;;;;1999.90;999.90;;;14.70;99.90;;;;;;5102993;27;20491;-75
2022/07/29 04:58:48;;;;;;;1999.90;999.90;;;14.70;99.90;;;;;;5132296;27;20031;-75
2022/07/29 05:01:14;;;;;;;1999.90;999.90;;;14.80;99.90;;;;;;5128578;27;20121;-76
2022/07/29 05:03:40;;;;;;;1999.90;999.90;;;14.80;99.90;;;;;;5097412;28;20375;-76
2022/07/29 05:06:05;;;;;;;1999.90;999.90;;;14.80;99.90;;;;;;5119694;27;20502;-76
2022/07/29 05:08:31;;;;;;;1999.90;999.90;;;14.80;99.90;;;;;;5131509;27;20042;-76
2022/07/29 05:10:56;;;;;;;1999.90;999.90;;;14.90;99.90;;;;;;5125113;27;20042;-76
2022/07/29 05:13:22;;;;;;;1999.90;999.90;;;14.90;99.90;;;;;;5125426;27;20047;-76
2022/07/29 05:15:48;;;;;;;1999.90;999.90;;;15.00;99.90;;;;;;5127490;27;20487;-76
2022/07/29 05:18:13;;;;;;;1999.90;999.90;;;15.00;99.90;;;;;;5115393;27;20074;-76
2022/07/29 05:20:39;;;;;;;1999.90;999.90;;;15.10;99.90;;;;;;5113393;27;20031;-76
2022/07/29 05:23:05;;;;;;;1999.90;999.90;;;15.10;99.90;;;;;;5124532;27;20035;-76
2022/07/29 05:25:31;;;;;;;1999.90;999.90;;;15.20;99.90;;;;;;5124793;27;20047;-76
2022/07/29 05:27:56;;;;;;;1999.90;999.90;;;15.20;99.90;;;;;;5128580;27;20038;-76
2022/07/29 05:30:22;;;;;;;1999.90;999.90;;;15.30;99.90;;;;;;5112648;27;20043;-76
2022/07/29 05:32:48;;;;;;;1999.90;999.90;;;15.40;99.90;;;;;;5129030;27;20035;-76
2022/07/29 05:35:14;;;;;;;1999.90;999.90;;;15.40;99.90;;;;;;5112768;27;20038;-76
2022/07/29 05:37:40;;;;;;;1999.90;999.90;;;15.50;99.90;;;;;;5131454;27;20031;-76
2022/07/29 05:40:06;;;;;;;1999.90;999.90;;;15.50;99.90;;;;;;5122945;27;20054;-76
2022/07/29 05:42:32;;;;;;;1999.90;999.90;;;15.60;99.90;;;;;;5132219;27;20043;-76
2022/07/29 05:44:59;;;;;;;1999.90;999.90;;;15.60;99.90;;;;;;5130291;27;20095;-76
2022/07/29 05:47:25;;;;;;;1999.90;999.90;;;15.70;99.90;;;;;;5130393;27;20047;-75
2022/07/29 05:49:50;;;;;;;1999.90;999.90;;;15.70;99.90;;;;;;5129362;27;20039;-76
2022/07/29 05:52:16;;;;;;;1999.90;999.90;;;15.80;99.90;;;;;;5120670;27;20108;-76
2022/07/29 05:54:42;;;;;;;1999.90;999.90;;;15.80;99.90;;;;;;5113876;27;20048;-76
2022/07/29 05:57:08;;;;;;;1999.90;999.90;;;15.80;99.90;;;;;;5125432;27;20395;-76
2022/07/29 05:59:37;;;;;;;1999.90;999.90;;;15.90;99.90;;;;;;5129676;27;20046;-75
2022/07/29 06:02:04;;;;;;;1999.90;999.90;;;16.00;99.90;;;;;;5131438;27;20118;-75
2022/07/29 06:04:31;;;;;;;1999.90;999.90;;;16.10;99.90;;;;;;5124347;27;20399;-76
2022/07/29 06:06:57;;;;;;;1999.90;999.90;;;16.20;99.90;;;;;;5127249;27;20035;-76
2022/07/29 06:09:23;;;;;;;1999.90;999.90;;;16.30;99.90;;;;;;5088330;27;20092;-76
2022/07/29 06:11:48;;;;;;;1999.90;999.90;;;16.40;99.90;;;;;;5131595;27;20066;-76
2022/07/29 06:14:14;;;;;;;1999.90;999.90;;;16.50;99.90;;;;;;5126832;27;20561;-76
2022/07/29 06:16:40;;;;;;;1999.90;999.90;;;16.80;99.90;;;;;;5102156;28;20031;-76
2022/07/29 06:19:05;;;;;;;1999.90;999.90;;;17.00;99.90;;;;;;5125657;27;20047;-76
2022/07/29 06:21:31;;;;;;;1999.90;999.90;;;17.10;99.90;;;;;;5127710;27;20112;-76
2022/07/29 06:23:57;;;;;;;1999.90;999.90;;;17.10;99.90;;;;;;5116834;27;20422;-76
2022/07/29 06:26:22;;;;;;;1999.90;999.90;;;17.20;99.90;;;;;;5129414;27;20047;-76
2022/07/29 06:28:48;;;;;;;1999.90;999.90;;;17.40;99.90;;;;;;5119172;27;20482;-75
2022/07/29 06:31:14;;;;;;;1999.90;999.90;;;17.80;99.90;;;;;;5112208;27;20043;-75
2022/07/29 06:33:40;;;;;;;1999.90;999.90;;;18.10;99.90;;;;;;5122130;27;20031;-76
2022/07/29 06:36:05;;;;;;;1999.90;999.90;;;18.30;99.90;;;;;;5106080;27;20088;-76
2022/07/29 06:38:32;;;;;;;1999.90;999.90;;;18.20;99.90;;;;;;5114311;27;20051;-75
2022/07/29 06:41:10;;;;;;;1999.90;999.90;;;18.00;99.90;;;;;;5131965;27;20393;-76
2022/07/29 06:43:43;;;;;;;1999.90;999.90;;;17.80;99.90;;;;;;5127725;27;20375;-76
2022/07/29 06:46:14;;;;;;;1999.90;999.90;;;17.70;99.90;;;;;;5134137;27;20031;-76
2022/07/29 06:48:41;;;;;;;1999.90;999.90;;;17.70;99.90;;;;;;5106307;27;20425;-76
2022/07/29 06:51:08;;;;;;;1999.90;999.90;;;17.60;99.90;;;;;;5111548;27;20035;-76
2022/07/29 06:53:34;;;;;;;1999.90;999.90;;;17.60;99.90;;;;;;5110198;27;20122;-76
2022/07/29 06:56:00;;;;;;;1999.90;999.90;;;17.60;99.90;;;;;;5119426;27;20031;-77
2022/07/29 06:58:27;;;;;;;1999.90;999.90;;;17.70;99.90;;;;;;5130309;27;20050;-76
2022/07/29 07:00:53;;;;;;;1999.90;999.90;;;17.90;99.90;;;;;;5127887;27;20046;-76
2022/07/29 07:03:19;;;;;;;1999.90;999.90;;;18.10;99.90;;;;;;5130764;27;20101;-76
2022/07/29 07:05:45;;;;;;;1999.90;999.90;;;18.10;99.90;;;;;;5129392;27;20406;-76
2022/07/29 07:08:12;;;;;;;1999.90;999.90;;;18.20;99.90;;;;;;5110866;27;20045;-77
2022/07/29 07:10:38;;;;;;;1999.90;999.90;;;18.30;99.90;;;;;;5127520;27;20517;-77
2022/07/29 07:13:04;;;;;;;1999.90;999.90;;;18.40;99.90;;;;;;5126188;27;20126;-77
2022/07/29 07:15:30;;;;;;;1999.90;999.90;;;18.60;99.90;;;;;;5128173;27;20540;-77
2022/07/29 07:17:55;;;;;;;1999.90;999.90;;;18.60;99.90;;;;;;5114084;27;20135;-76
2022/07/29 07:20:21;;;;;;;1999.90;999.90;;;18.60;99.90;;;;;;5121222;27;20439;-76
2022/07/29 07:22:47;;;;;;;1999.90;999.90;;;18.70;99.90;;;;;;5129928;27;20046;-76
2022/07/29 07:25:13;;;;;;;1999.90;999.90;;;18.80;99.90;;;;;;5108561;27;20070;-76
2022/07/29 07:27:38;;;;;;;1999.90;999.90;;;19.00;99.90;;;;;;5126223;27;20096;-76
2022/07/29 07:30:06;;;;;;;1999.90;999.90;;;19.30;99.90;;;;;;5111378;27;20087;-77
2022/07/29 07:32:32;;;;;;;1999.90;999.90;;;19.70;99.90;;;;;;5129408;27;20054;-77
2022/07/29 07:34:58;;;;;;;1999.90;999.90;;;19.80;99.90;;;;;;5119725;27;20091;-77
2022/07/29 07:37:24;;;;;;;1999.90;999.90;;;19.70;99.90;;;;;;5127171;27;20121;-77
2022/07/29 07:39:51;;;;;;;1999.90;999.90;;;19.50;99.90;;;;;;5129916;27;20047;-77
2022/07/29 07:42:17;;;;;;;1999.90;999.90;;;19.40;99.90;;;;;;5134202;27;20031;-77
2022/07/29 07:44:43;;;;;;;1999.90;999.90;;;19.40;99.90;;;;;;5129775;27;20381;-77
2022/07/29 07:47:08;;;;;;;1999.90;999.90;;;19.40;99.90;;;;;;5100547;27;20039;-77
2022/07/29 07:49:34;;;;;;;1999.90;999.90;;;19.40;99.90;;;;;;5125188;27;20487;-76
2022/07/29 07:52:00;;;;;;;1999.90;999.90;;;19.40;99.90;;;;;;5123987;27;20036;-77
2022/07/29 07:54:26;;;;;;;1999.90;999.90;;;19.40;99.90;;;;;;5120829;27;20039;-77
2022/07/29 07:56:51;;;;;;;1999.90;999.90;;;19.40;99.90;;;;;;5107316;27;20131;-77
2022/07/29 07:59:17;;;;;;;1999.90;999.90;;;19.40;99.90;;;;;;5116722;27;20035;-76
2022/07/29 08:01:42;;;;;;;1999.90;999.90;;;19.30;99.90;;;;;;5116437;27;20130;-76
2022/07/29 08:04:08;;;;;;;1999.90;999.90;;;19.30;99.90;;;;;;5116193;27;20086;-76
2022/07/29 08:06:35;;;;;;;1999.90;999.90;;;19.20;99.90;;;;;;5118579;27;20043;-77
2022/07/29 08:09:02;;;;;;;1999.90;999.90;;;19.30;99.90;;;;;;5102463;27;20050;-76
2022/07/29 08:11:28;;;;;;;1999.90;999.90;;;19.30;99.90;;;;;;5122566;27;20043;-76
2022/07/29 08:13:54;;;;;;;1999.90;999.90;;;19.30;99.90;;;;;;5108808;27;20118;-76
2022/07/29 08:16:20;;;;;;;1999.90;999.90;;;19.20;99.90;;;;;;5120339;27;20031;-76
2022/07/29 08:18:46;;;;;;;1999.90;999.90;;;19.30;99.90;;;;;;5111724;27;20039;-77
2022/07/29 08:21:15;;;;;;;1999.90;999.90;;;19.20;99.90;;;;;;5125863;27;20041;-76
2022/07/29 08:24:42;;;;;;;1999.90;999.90;;;19.10;99.90;;;;;;5118190;27;20059;-76
2022/07/29 08:26:41;;;;;;;1999.90;999.90;;;19.00;99.90;;;;;;5127388;27;20043;-76
2022/07/29 08:29:07;;;;;;;1999.90;999.90;;;18.80;99.90;;;;;;5122989;27;20485;-77
2022/07/29 08:31:32;;;;;;;1999.90;999.90;;;18.70;99.90;;;;;;5123742;27;20075;-77
2022/07/29 08:33:59;;;;;;;1999.90;999.90;;;18.60;99.90;;;;;;5120704;27;20387;-76
2022/07/29 08:36:25;;;;;;;1999.90;999.90;;;18.70;99.90;;;;;;5123126;27;20447;-77
2022/07/29 08:38:51;;;;;;;1999.90;999.90;;;18.60;99.90;;;;;;5098528;28;20055;-77
2022/07/29 08:41:19;;;;;;;1999.90;999.90;;;18.60;99.90;;;;;;5114371;27;20066;-77
2022/07/29 08:43:46;;;;;;;1999.90;999.90;;;18.60;99.90;;;;;;5123602;27;20068;-77
2022/07/29 08:46:11;;;;;;;1999.90;999.90;;;18.70;99.90;;;;;;5134968;27;20062;-76
2022/07/29 08:48:38;;;;;;;1999.90;999.90;;;18.80;99.90;;;;;;5123067;27;20043;-77
2022/07/29 08:51:06;;;;;;;1999.90;999.90;;;18.90;99.90;;;;;;5121566;27;20043;-77
2022/07/29 08:53:32;;;;;;;1999.90;999.90;;;19.00;99.90;;;;;;5109592;27;20046;-77
2022/07/29 08:55:59;;;;;;;1999.90;999.90;;;19.20;99.90;;;;;;5126878;27;20038;-78
2022/07/29 08:58:26;;;;;;;1999.90;999.90;;;19.20;99.90;;;;;;5128648;27;20382;-77
2022/07/29 09:00:54;;;;;;;1999.90;999.90;;;19.30;99.90;;;;;;5123167;27;20378;-77
2022/07/29 09:03:23;;;;;;;1999.90;999.90;;;19.30;99.90;;;;;;5085440;27;20138;-78
2022/07/29 09:05:49;;;;;;;1999.90;999.90;;;19.30;99.90;;;;;;5127140;27;20509;-77
2022/07/29 09:08:16;;;;;;;1999.90;999.90;;;19.50;99.90;;;;;;5125609;27;20091;-77
2022/07/29 09:10:42;;;;;;;1999.90;999.90;;;19.70;99.90;;;;;;5140533;27;20050;-77
2022/07/29 09:13:08;;;;;;;1999.90;999.90;;;19.90;99.90;;;;;;5121194;27;20043;-77
2022/07/29 09:15:34;;;;;;;1999.90;999.90;;;20.20;99.90;;;;;;5120997;27;20039;-77
2022/07/29 09:18:00;;;;;;;1999.90;999.90;;;20.30;99.90;;;;;;5115122;27;20157;-77
2022/07/29 09:21:57;;;;;;;1999.90;999.90;;;20.50;99.90;;;;;;5122063;27;20042;-77
2022/07/29 09:23:13;;;;;;;1999.90;999.90;;;20.60;99.90;;;;;;5130457;27;20054;-77
2022/07/29 09:25:40;;;;;;;1999.90;999.90;;;20.70;99.70;;;;;;5132241;27;20039;-77
2022/07/29 09:28:14;;;;;;;1999.90;999.90;;;20.90;99.90;;;;;;5125469;27;20118;-77
2022/07/29 09:30:51;;;;;;;1999.90;999.90;;;21.10;99.40;;;;;;5126244;27;20441;-77
2022/07/29 09:33:18;;;;;;;1999.90;999.90;;;21.20;99.80;;;;;;5123193;27;20482;-77
2022/07/29 09:35:43;;;;;;;1999.90;999.90;;;21.30;99.90;;;;;;5122213;27;20039;-78
2022/07/29 09:38:13;;;;;;;1999.90;999.90;;;21.30;98.30;;;;;;5128782;27;20043;-76
2022/07/29 09:40:40;;;;;;;1999.90;999.90;;;21.20;98.50;;;;;;5109092;27;20103;-77
2022/07/29 09:43:12;;;;;;;1999.90;999.90;;;21.20;98.60;;;;;;5136189;27;21071;-77
2022/07/29 09:45:39;;;;;;;1999.90;999.90;;;21.00;98.10;;;;;;5132917;27;20082;-77
2022/07/29 09:48:17;;;;;;;1999.90;999.90;;;20.90;98.30;;;;;;5094858;27;20111;-77
2022/07/29 09:50:44;;;;;;;1999.90;999.90;;;20.70;98.60;;;;;;5116704;27;20051;-78
2022/07/29 09:53:10;;;;;;;1999.90;999.90;;;20.60;98.70;;;;;;5132145;27;20112;-78
2022/07/29 09:55:50;;;;;;;1999.90;999.90;;;20.50;98.70;;;;;;5129801;27;20395;-78
2022/07/29 09:58:21;;;;;;;1999.90;999.90;;;20.50;98.90;;;;;;5125047;27;20074;-77
2022/07/29 10:00:49;;;;;;;1999.90;999.90;;;20.40;98.90;;;;;;5127764;27;20030;-78
2022/07/29 10:03:16;;;;;;;1999.90;999.90;;;20.30;98.40;;;;;;5124732;27;20039;-77
2022/07/29 10:05:42;;;;;;;1999.90;999.90;;;20.20;97.70;;;;;;5125111;27;20054;-78
2022/07/29 10:08:09;;;;;;;1999.90;999.90;;;20.10;98.10;;;;;;5131761;27;20042;-78
2022/07/29 10:10:38;;;;;;;1999.90;999.90;;;20.00;98.60;;;;;;5139165;27;20144;-77
2022/07/29 10:13:09;;;;;;;1999.90;999.90;;;20.10;99.00;;;;;;5129166;27;20043;-78
2022/07/29 10:15:40;;;;;;;1999.90;999.90;;;20.30;99.90;;;;;;5104504;27;20682;-77
2022/07/29 10:18:07;;;;;;;1999.90;999.90;;;20.60;98.90;;;;;;5134646;27;20038;-77
2022/07/29 10:20:33;;;;;;;1999.90;999.90;;;20.70;98.60;;;;;;5124835;27;20043;-78
2022/07/29 10:22:59;;;;;;;1999.90;999.90;;;20.80;98.80;;;;;;5098367;27;20047;-78
2022/07/29 10:25:26;;;;;;;1999.90;999.90;;;21.00;98.40;;;;;;5126205;27;20042;-76
2022/07/29 10:27:53;;;;;;;1999.90;999.90;;;21.00;97.50;;;;;;5121995;27;20456;-78
2022/07/29 10:30:21;;;;;;;1999.90;999.90;;;21.00;96.80;;;;;;5116465;27;20061;-77
2022/07/29 10:33:09;;;;;;;1999.90;999.90;;;20.90;97.70;;;;;;5102927;27;20049;-78
2022/07/29 10:35:49;;;;;;;1999.90;999.90;;;20.90;97.90;;;;;;5122757;27;20051;-78
2022/07/29 10:38:23;;;;;;;1999.90;999.90;;;21.00;98.00;;;;;;5122874;27;20044;-76
2022/07/29 10:43:44;;;;;;;1999.90;999.90;;;21.00;97.50;;;;;;5109276;27;20491;-76
2022/07/29 10:46:11;;;;;;;1999.90;999.90;;;20.90;97.60;;;;;;5121719;27;20038;-76
2022/07/29 10:49:11;;;;;;;1999.90;999.90;;;20.90;97.10;;;;;;5123237;27;20042;-76
2022/07/29 10:52:02;;;;;;;1999.90;999.90;;;20.90;96.90;;;;;;5130164;27;20168;-76
2022/07/29 10:54:41;;;;;;;1999.90;999.90;;;20.90;97.20;;;;;;5131725;27;20063;-76
2022/07/29 10:57:31;;;;;;;1999.90;999.90;;;21.10;97.30;;;;;;5127806;27;20039;-76
2022/07/29 11:00:13;;;;;;;1999.90;999.90;;;21.20;97.30;;;;;;5118759;27;20055;-76
2022/07/29 11:02:44;;;;;;;1999.90;999.90;;;21.30;97.10;;;;;;5115596;27;20459;-76
2022/07/29 11:05:18;;;;;;;1999.90;999.90;;;21.50;96.90;;;;;;5133069;27;20085;-76
2022/07/29 11:08:12;;;;;;;1999.90;999.90;;;21.50;96.90;;;;;;5118281;27;20088;-76
2022/07/29 11:10:38;;;;;;;1999.90;999.90;;;21.70;96.60;;;;;;5115717;27;20035;-77
2022/07/29 11:13:03;;;;;;;1999.90;999.90;;;21.70;96.20;;;;;;5121258;27;20035;-76
2022/07/29 11:15:49;;;;;;;1999.90;999.90;;;21.70;95.30;;;;;;5118487;27;20088;-77
2022/07/29 11:18:14;;;;;;;1999.90;999.90;;;21.70;95.30;;;;;;5126690;27;20039;-76
2022/07/29 11:20:49;;;;;;;1999.90;999.90;;;21.70;97.20;;;;;;5119148;27;20087;-76
2022/07/29 11:23:35;;;;;;;1999.90;999.90;;;21.80;97.00;;;;;;5122383;27;20121;-77
2022/07/29 11:26:20;;;;;;;1999.90;999.90;;;22.00;96.40;;;;;;5125485;27;20409;-77
2022/07/29 11:28:51;;;;;;;1999.90;999.90;;;22.10;96.30;;;;;;5118090;27;20070;-77
2022/07/29 11:31:43;;;;;;;1999.90;999.90;;;22.20;95.80;;;;;;5125793;27;20035;-76
2022/07/29 11:34:25;;;;;;;1999.90;999.90;;;22.20;95.50;;;;;;5090292;28;20085;-76
2022/07/29 11:37:09;;;;;;;1999.90;999.90;;;22.10;95.50;;;;;;5123543;27;20039;-77
2022/07/29 11:39:53;;;;;;;1999.90;999.90;;;22.10;94.60;;;;;;5117281;27;20055;-76
2022/07/29 11:42:24;;;;;;;1999.90;999.90;;;22.00;95.50;;;;;;5129239;27;20042;-76
2022/07/29 11:45:05;;;;;;;1999.90;999.90;;;22.10;95.20;;;;;;5104986;27;20039;-76
2022/07/29 11:47:38;;;;;;;1999.90;999.90;;;22.10;95.50;;;;;;5112022;27;20433;-76
2022/07/29 11:50:09;;;;;;;1999.90;999.90;;;22.10;95.40;;;;;;5122560;27;20047;-77
2022/07/29 11:52:42;;;;;;;1999.90;999.90;;;22.20;94.80;;;;;;5096866;27;20054;-76
2022/07/29 11:55:10;;;;;;;1999.90;999.90;;;22.20;95.30;;;;;;5092108;27;20395;-77
2022/07/29 11:57:36;;;;;;;1999.90;999.90;;;22.30;95.90;;;;;;5113812;27;20050;-77
2022/07/29 12:00:06;;;;;;;1999.90;999.90;;;22.50;95.30;;;;;;5112208;27;20053;-76
2022/07/29 12:02:41;;;;;;;1999.90;999.90;;;22.70;95.20;;;;;;5114001;27;20082;-77
2022/07/29 12:05:09;;;;;;;1999.90;999.90;;;23.00;96.30;;;;;;5113758;27;20043;-77
2022/07/29 12:07:36;;;;;;;1999.90;999.90;;;23.40;96.60;;;;;;5122257;27;20486;-76
2022/07/29 12:10:04;;;;;;;1999.90;999.90;;;23.70;95.20;;;;;;5117039;27;20044;-77
2022/07/29 12:12:29;;;;;;;1999.90;999.90;;;24.10;94.70;;;;;;5127327;27;20047;-77
2022/07/29 12:14:55;;;;;;;1999.90;999.90;;;24.60;95.00;;;;;;5129655;27;20050;-77